createdAt,value
2023-04-15T00:01:50.121Z,67.29
2023-04-15T00:04:18.196Z,67.65
2023-04-15T00:06:52.968Z,67.19
2023-04-15T00:09:21.159Z,67.71
2023-04-15T00:11:49.142Z,67.57
2023-04-15T00:14:17.372Z,67.32
2023-04-15T00:16:46.662Z,67.67
2023-04-15T00:19:14.679Z,67.41
2023-04-15T00:21:42.679Z,67.21
2023-04-15T00:24:10.614Z,67.77
2023-04-15T00:26:38.572Z,67.72
2023-04-15T00:29:06.528Z,67.91
2023-04-15T00:31:34.356Z,67.73
2023-04-15T00:34:03.713Z,67.37
2023-04-15T00:36:33.861Z,67.89
2023-04-15T00:39:03.220Z,67.92
2023-04-15T00:41:31.685Z,68.29
2023-04-15T00:44:00.402Z,68.29
2023-04-15T00:46:32.009Z,68.30
2023-04-15T00:49:00.359Z,68.29
2023-04-15T00:51:31.137Z,68.22
2023-04-15T00:53:59.090Z,68.77
2023-04-15T00:56:28.066Z,68.43
2023-04-15T00:58:56.407Z,68.85
2023-04-15T01:01:27.312Z,68.73
2023-04-15T01:03:57.750Z,68.84
2023-04-15T01:06:27.255Z,68.23
2023-04-15T01:08:57.069Z,68.56
2023-04-15T01:11:25.841Z,68.76
2023-04-15T01:13:54.199Z,69.43
2023-04-15T01:16:22.445Z,68.93
2023-04-15T01:18:50.550Z,69.24
2023-04-15T01:21:20.913Z,69.10
2023-04-15T01:23:49.986Z,69.51
2023-04-15T01:26:19.544Z,69.85
2023-04-15T01:28:47.506Z,69.31
2023-04-15T01:31:16.365Z,69.05
2023-04-15T01:33:44.771Z,69.35
2023-04-15T01:36:35.232Z,69.73
2023-04-15T01:39:03.754Z,69.60
2023-04-15T01:41:33.067Z,69.06
2023-04-15T01:44:02.321Z,69.79
2023-04-15T01:46:31.624Z,70.58
2023-04-15T01:49:02.826Z,70.45
2023-04-15T01:51:34.225Z,70.74
2023-04-15T01:54:03.451Z,70.14
2023-04-15T01:56:34.242Z,70.49
2023-04-15T01:59:03.775Z,70.35
2023-04-15T02:01:34.781Z,71.62
2023-04-15T02:04:04.010Z,70.71
2023-04-15T02:06:34.111Z,70.72
2023-04-15T02:09:04.311Z,70.42
2023-04-15T02:11:35.226Z,70.47
2023-04-15T02:14:06.415Z,70.04
2023-04-15T02:16:35.707Z,69.98
2023-04-15T02:19:05.008Z,69.66
2023-04-15T02:21:35.389Z,70.56
2023-04-15T02:24:04.743Z,69.93
2023-04-15T02:26:35.246Z,70.61
2023-04-15T02:29:04.514Z,70.91
2023-04-15T02:31:36.969Z,71.00
2023-04-15T02:34:06.290Z,71.82
2023-04-15T02:36:35.730Z,71.35
2023-04-15T02:39:05.073Z,71.05
2023-04-15T02:41:35.777Z,71.01
2023-04-15T02:44:07.193Z,70.66
2023-04-15T02:46:36.657Z,71.01
2023-04-15T02:49:08.404Z,70.87
2023-04-15T02:51:38.815Z,71.25
2023-04-15T02:54:08.781Z,71.23
2023-04-15T02:56:39.297Z,71.51
2023-04-15T02:59:08.457Z,71.23
2023-04-15T03:01:37.667Z,71.14
2023-04-15T03:04:07.840Z,71.34
2023-04-15T03:06:37.699Z,71.02
2023-04-15T03:09:06.865Z,70.60
2023-04-15T03:11:41.536Z,70.86
2023-04-15T03:14:12.228Z,70.85
2023-04-15T03:16:46.520Z,70.83
2023-04-15T03:19:18.483Z,71.25
2023-04-15T03:21:47.623Z,71.55
2023-04-15T03:24:17.025Z,71.05
2023-04-15T03:26:48.542Z,71.07
2023-04-15T03:29:19.561Z,70.88
2023-04-15T03:31:50.010Z,70.86
2023-04-15T03:34:19.326Z,71.37
2023-04-15T03:36:48.509Z,71.21
2023-04-15T03:39:17.899Z,71.90
2023-04-15T03:41:48.334Z,71.58
2023-04-15T03:44:17.529Z,71.41
2023-04-15T03:46:46.729Z,70.84
2023-04-15T03:49:16.336Z,71.07
2023-04-15T03:51:45.527Z,70.86
2023-04-15T03:54:15.291Z,70.85
2023-04-15T03:56:44.458Z,71.48
2023-04-15T03:59:14.891Z,71.17
2023-04-15T04:01:44.059Z,71.00
2023-04-15T04:04:13.493Z,71.24
2023-04-15T04:06:42.747Z,71.21
2023-04-15T04:09:11.821Z,71.02
2023-04-15T04:11:41.017Z,71.14
2023-04-15T04:14:10.556Z,71.06
2023-04-15T04:16:41.140Z,70.97
2023-04-15T04:19:10.386Z,70.75
2023-04-15T04:21:39.639Z,70.62
2023-04-15T04:24:08.748Z,70.96
2023-04-15T04:26:37.890Z,71.52
2023-04-15T04:29:07.157Z,71.04
2023-04-15T04:31:37.189Z,71.00
2023-04-15T04:34:08.147Z,70.87
2023-04-15T04:36:37.292Z,70.60
2023-04-15T04:39:06.330Z,70.40
2023-04-15T04:41:35.549Z,70.36
2023-04-15T04:44:04.843Z,69.89
2023-04-15T04:46:34.296Z,69.55
2023-04-15T04:49:03.683Z,69.71
2023-04-15T04:51:34.469Z,69.12
2023-04-15T04:54:04.287Z,68.92
2023-04-15T04:56:36.761Z,68.48
2023-04-15T04:59:06.627Z,68.83
2023-04-15T05:01:35.918Z,67.48
2023-04-15T05:04:05.621Z,67.16
2023-04-15T05:06:36.940Z,67.32
2023-04-15T05:09:06.059Z,66.47
2023-04-15T05:11:35.258Z,66.23
2023-04-15T05:14:04.418Z,66.20
2023-04-15T05:16:33.468Z,66.11
2023-04-15T05:19:02.919Z,65.12
2023-04-15T05:21:32.628Z,65.35
2023-04-15T05:24:03.179Z,65.39
2023-04-15T05:26:32.577Z,64.24
2023-04-15T05:29:01.965Z,64.02
2023-04-15T05:31:31.564Z,64.17
2023-04-15T05:34:00.645Z,64.02
2023-04-15T05:36:29.794Z,64.37
2023-04-15T05:38:58.976Z,64.39
2023-04-15T05:41:29.585Z,64.59
2023-04-15T05:43:58.832Z,64.92
2023-04-15T05:46:27.999Z,64.61
2023-04-15T05:48:57.116Z,65.09
2023-04-15T05:51:26.446Z,64.88
2023-04-15T05:53:55.860Z,65.00
2023-04-15T05:56:26.780Z,64.23
2023-04-15T05:58:57.186Z,64.86
2023-04-15T06:01:32.726Z,65.12
2023-04-15T06:04:01.999Z,64.81
2023-04-15T06:06:32.489Z,64.73
2023-04-15T06:09:01.931Z,65.12
2023-04-15T06:11:31.512Z,65.07
2023-04-15T06:14:02.085Z,64.06
2023-04-15T06:16:31.250Z,64.57
2023-04-15T06:19:00.492Z,64.23
2023-04-15T06:21:29.781Z,64.32
2023-04-15T06:23:59.953Z,64.57
2023-04-15T06:26:29.293Z,64.50
2023-04-15T06:28:58.432Z,63.92
2023-04-15T06:31:28.948Z,64.33
2023-04-15T06:33:58.043Z,64.13
2023-04-15T06:36:27.966Z,63.64
2023-04-15T06:38:57.641Z,63.09
2023-04-15T06:41:26.741Z,63.22
2023-04-15T06:43:56.341Z,62.37
2023-04-15T06:46:25.564Z,63.16
2023-04-15T06:48:56.132Z,62.72
2023-04-15T06:51:26.759Z,62.59
2023-04-15T06:53:56.892Z,63.33
2023-04-15T06:56:26.065Z,63.70
2023-04-15T06:58:55.205Z,63.74
2023-04-15T07:01:24.329Z,63.33
2023-04-15T07:03:53.595Z,63.08
2023-04-15T07:06:24.082Z,62.76
2023-04-15T07:08:53.141Z,63.39
2023-04-15T07:11:22.293Z,64.40
2023-04-15T07:13:51.744Z,64.48
2023-04-15T07:16:21.235Z,63.86
2023-04-15T07:18:50.338Z,63.33
2023-04-15T07:21:19.367Z,62.82
2023-04-15T07:23:49.952Z,63.22
2023-04-15T07:26:19.137Z,63.22
2023-04-15T07:28:48.241Z,63.44
2023-04-15T07:31:17.665Z,62.40
2023-04-15T07:33:46.741Z,62.46
2023-04-15T07:36:15.855Z,62.45
2023-04-15T07:38:44.985Z,62.42
2023-04-15T07:41:15.810Z,62.66
2023-04-15T07:43:45.344Z,62.37
2023-04-15T07:46:14.487Z,62.04
2023-04-15T07:48:43.852Z,62.86
2023-04-15T07:51:12.972Z,62.25
2023-04-15T07:53:42.333Z,62.50
2023-04-15T07:56:11.499Z,62.42
2023-04-15T07:58:42.479Z,61.87
2023-04-15T08:01:11.632Z,61.67
2023-04-15T08:03:41.295Z,61.34
2023-04-15T08:06:10.745Z,60.84
2023-04-15T08:08:39.974Z,61.27
2023-04-15T08:11:09.746Z,60.64
2023-04-15T08:13:38.799Z,60.94
2023-04-15T08:16:23.681Z,60.17
2023-04-15T08:18:55.174Z,58.86
2023-04-15T08:21:25.026Z,58.72
2023-04-15T08:23:55.524Z,57.69
2023-04-15T08:26:24.615Z,58.10
2023-04-15T08:28:53.781Z,58.04
2023-04-15T08:31:24.278Z,57.92
2023-04-15T08:33:54.823Z,57.63
2023-04-15T08:36:24.254Z,56.92
2023-04-15T08:38:53.301Z,56.38
2023-04-15T08:41:24.429Z,55.88
2023-04-15T08:43:55.641Z,55.57
2023-04-15T08:46:26.219Z,55.68
2023-04-15T08:48:57.842Z,55.25
2023-04-15T08:51:28.101Z,55.41
2023-04-15T08:53:57.555Z,55.47
2023-04-15T08:56:27.874Z,55.96
2023-04-15T08:58:57.163Z,56.16
2023-04-15T09:01:27.845Z,56.61
2023-04-15T09:03:58.016Z,56.59
2023-04-15T09:06:27.339Z,56.99
2023-04-15T09:08:56.674Z,57.40
2023-04-15T09:11:26.135Z,57.73
2023-04-15T09:13:55.661Z,58.52
2023-04-15T09:16:25.078Z,58.30
2023-04-15T09:18:55.691Z,58.96
2023-04-15T09:21:25.853Z,59.18
2023-04-15T09:23:57.125Z,59.69
2023-04-15T09:26:32.765Z,59.11
2023-04-15T09:29:09.337Z,58.86
2023-04-15T09:31:39.357Z,58.90
2023-04-15T09:34:09.917Z,59.37
2023-04-15T09:36:56.086Z,60.04
2023-04-15T09:39:25.255Z,59.21
2023-04-15T09:42:09.731Z,59.80
2023-04-15T09:44:38.931Z,59.17
2023-04-15T09:47:07.964Z,58.80
2023-04-15T09:49:38.483Z,58.36
2023-04-15T09:52:07.742Z,58.34
2023-04-15T09:54:39.010Z,57.99
2023-04-15T09:57:10.386Z,58.36
2023-04-15T09:59:39.737Z,58.67
2023-04-15T10:02:09.273Z,59.10
2023-04-15T10:04:42.175Z,59.25
2023-04-15T10:07:12.711Z,59.38
2023-04-15T10:09:42.011Z,60.19
2023-04-15T10:12:12.200Z,60.22
2023-04-15T10:14:44.316Z,59.98
2023-04-15T10:17:14.353Z,60.17
2023-04-15T10:19:45.834Z,59.97
2023-04-15T10:22:15.681Z,59.98
2023-04-15T10:24:47.178Z,59.73
2023-04-15T10:27:18.009Z,59.72
2023-04-15T10:29:48.739Z,59.76
2023-04-15T10:32:20.638Z,60.02
2023-04-15T10:34:54.422Z,59.44
2023-04-15T10:37:36.569Z,59.25
2023-04-15T10:40:31.499Z,58.47
2023-04-15T10:43:02.130Z,58.36
2023-04-15T10:45:34.833Z,57.98
2023-04-15T10:48:05.451Z,57.96
2023-04-15T10:50:39.243Z,57.25
2023-04-15T10:53:11.676Z,56.70
2023-04-15T10:55:40.819Z,56.37
2023-04-15T10:58:11.275Z,56.00
2023-04-15T11:00:40.426Z,55.86
2023-04-15T11:03:11.038Z,55.80
2023-04-15T11:05:52.721Z,56.34
2023-04-15T11:08:42.175Z,56.47
2023-04-15T11:11:11.368Z,56.65
2023-04-15T11:13:49.463Z,56.67
2023-04-15T11:16:18.665Z,56.62
2023-04-15T11:18:55.814Z,56.62
2023-04-15T11:21:28.211Z,56.43
2023-04-15T11:23:57.673Z,56.42
2023-04-15T11:26:28.149Z,56.94
2023-04-15T11:28:57.777Z,56.90
2023-04-15T11:31:28.649Z,56.92
2023-04-15T11:33:59.452Z,57.06
2023-04-15T11:36:31.846Z,57.46
2023-04-15T11:39:01.595Z,57.39
2023-04-15T11:41:30.673Z,57.78
2023-04-15T11:43:59.777Z,58.61
2023-04-15T11:46:31.510Z,61.06
2023-04-15T11:49:00.747Z,63.90
2023-04-15T11:51:35.918Z,67.14
2023-04-15T11:54:04.458Z,68.67
2023-04-15T11:56:32.959Z,69.90
2023-04-15T11:59:01.295Z,70.80
2023-04-15T12:01:33.497Z,70.87
2023-04-15T12:04:02.487Z,70.78
2023-04-15T12:06:36.872Z,71.09
2023-04-15T12:09:09.331Z,70.50
2023-04-15T12:11:48.452Z,69.72
2023-04-15T12:14:26.525Z,68.90
2023-04-15T12:16:58.387Z,67.88
2023-04-15T12:19:28.675Z,66.83
2023-04-15T12:22:01.684Z,66.14
2023-04-15T12:24:32.025Z,65.53
2023-04-15T12:27:03.835Z,64.92
2023-04-15T12:29:32.797Z,64.02
2023-04-15T12:32:06.474Z,63.39
2023-04-15T12:34:36.270Z,62.66
2023-04-15T12:37:06.854Z,62.12
2023-04-15T12:39:37.451Z,62.29
2023-04-15T12:42:06.275Z,62.46
2023-04-15T12:44:34.663Z,62.34
2023-04-15T12:47:03.131Z,62.79
2023-04-15T12:49:32.832Z,63.44
2023-04-15T12:52:02.092Z,64.14
2023-04-15T12:54:32.579Z,64.78
2023-04-15T12:57:00.868Z,64.87
2023-04-15T12:59:29.501Z,65.72
2023-04-15T13:01:57.922Z,66.60
2023-04-15T13:04:25.951Z,67.57
2023-04-15T13:06:53.815Z,67.72
2023-04-15T13:09:21.722Z,67.99
2023-04-15T13:11:51.783Z,67.54
2023-04-15T13:14:19.737Z,67.24
2023-04-15T13:16:47.612Z,66.69
2023-04-15T13:19:15.763Z,66.54
2023-04-15T13:21:43.726Z,66.95
2023-04-15T13:24:11.863Z,66.66
2023-04-15T13:26:39.676Z,66.69
2023-04-15T13:29:08.889Z,66.92
2023-04-15T13:31:36.807Z,65.96
2023-04-15T13:34:04.851Z,65.51
2023-04-15T13:36:33.052Z,65.00
2023-04-15T13:39:01.007Z,65.11
2023-04-15T13:41:28.841Z,64.71
2023-04-15T13:43:58.382Z,65.38
2023-04-15T13:46:27.754Z,65.36
2023-04-15T13:48:55.906Z,65.76
2023-04-15T13:51:23.923Z,65.89
2023-04-15T13:53:51.833Z,65.89
2023-04-15T13:56:19.804Z,66.24
2023-04-15T13:58:47.660Z,65.82
2023-04-15T14:01:15.536Z,66.12
2023-04-15T14:03:44.861Z,66.13
2023-04-15T14:06:12.834Z,65.94
2023-04-15T14:08:40.652Z,66.31
2023-04-15T14:11:08.640Z,66.62
2023-04-15T14:13:36.928Z,67.72
2023-04-15T14:16:05.130Z,67.71
2023-04-15T14:18:34.473Z,67.98
2023-04-15T14:21:04.030Z,68.96
2023-04-15T14:23:31.850Z,69.13
2023-04-15T14:25:59.773Z,69.22
2023-04-15T14:28:27.661Z,69.42
2023-04-15T14:30:55.685Z,69.47
2023-04-15T14:33:23.656Z,68.78
2023-04-15T14:35:52.504Z,69.10
2023-04-15T14:38:22.726Z,69.01
2023-04-15T14:40:50.706Z,68.78
2023-04-15T14:43:18.561Z,68.88
2023-04-15T14:45:46.561Z,68.76
2023-04-15T14:48:14.744Z,69.17
2023-04-15T14:50:43.005Z,69.77
2023-04-15T14:53:10.941Z,70.77
2023-04-15T14:55:40.439Z,70.69
2023-04-15T14:58:09.459Z,70.89
2023-04-15T15:00:39.263Z,71.67
2023-04-15T15:03:12.688Z,71.55
2023-04-15T15:05:41.355Z,71.64
2023-04-15T15:08:10.054Z,71.48
2023-04-15T15:10:46.861Z,71.27
2023-04-15T15:13:18.603Z,71.42
2023-04-15T15:15:46.709Z,71.47
2023-04-15T15:18:14.893Z,70.51
2023-04-15T15:20:42.839Z,70.66
2023-04-15T15:23:10.733Z,70.15
2023-04-15T15:25:38.813Z,69.77
2023-04-15T15:28:07.730Z,69.83
2023-04-15T15:30:37.064Z,69.47
2023-04-15T15:33:05.065Z,69.43
2023-04-15T15:35:33.655Z,69.48
2023-04-15T15:38:01.914Z,69.10
2023-04-15T15:40:29.951Z,69.23
2023-04-15T15:42:57.885Z,68.37
2023-04-15T15:45:25.930Z,68.29
2023-04-15T15:47:57.065Z,67.88
2023-04-15T15:50:25.081Z,68.41
2023-04-15T15:52:53.012Z,68.03
2023-04-15T15:55:21.020Z,68.23
2023-04-15T15:57:49.866Z,68.85
2023-04-15T16:00:18.293Z,68.62
2023-04-15T16:05:18.537Z,69.41
2023-04-15T16:07:46.376Z,68.82
2023-04-15T16:10:14.282Z,68.97
2023-04-15T16:12:42.436Z,70.02
2023-04-15T16:15:11.886Z,70.34
2023-04-15T16:17:39.736Z,70.47
2023-04-15T16:20:08.920Z,70.15
2023-04-15T16:22:38.390Z,70.24
2023-04-15T16:25:07.093Z,69.62
2023-04-15T16:27:54.155Z,70.10
2023-04-15T16:30:24.949Z,69.83
2023-04-15T16:32:53.090Z,69.38
2023-04-15T16:35:21.205Z,70.06
2023-04-15T16:37:50.573Z,69.86
2023-04-15T16:40:18.650Z,69.60
2023-04-15T16:42:46.708Z,70.13
2023-04-15T16:45:14.551Z,69.65
2023-04-15T16:47:42.706Z,70.26
2023-04-15T16:50:11.753Z,70.13
2023-04-15T16:52:39.673Z,71.54
2023-04-15T16:55:10.006Z,70.94
2023-04-15T16:58:02.619Z,72.12
2023-04-15T17:00:25.899Z,72.32
2023-04-15T17:02:53.996Z,72.17
2023-04-15T17:05:22.150Z,72.22
2023-04-15T17:07:49.972Z,72.11
2023-04-15T17:10:19.349Z,72.92
2023-04-15T17:12:47.329Z,72.81
2023-04-15T17:15:15.240Z,72.65
2023-04-15T17:17:47.153Z,72.64
2023-04-15T17:20:17.408Z,72.75
2023-04-15T17:22:46.340Z,72.84
2023-04-15T17:25:14.776Z,73.00
2023-04-15T17:27:48.889Z,72.56
2023-04-15T17:30:20.685Z,72.88
2023-04-15T17:34:00.068Z,73.00
2023-04-15T17:36:16.534Z,73.11
2023-04-15T17:39:04.642Z,73.88
2023-04-15T17:41:52.618Z,73.40
2023-04-15T17:44:41.913Z,74.09
2023-04-15T17:47:29.808Z,73.66
2023-04-15T17:50:17.662Z,74.97
2023-04-15T17:53:05.642Z,74.64
2023-04-15T17:55:53.831Z,76.12
2023-04-15T17:58:41.600Z,76.26
2023-04-15T18:01:30.978Z,76.13
2023-04-15T18:04:18.935Z,75.87
2023-04-15T18:07:07.022Z,76.96
2023-04-15T18:12:43.629Z,77.46
2023-04-15T18:15:31.657Z,77.97
2023-04-15T18:18:20.964Z,77.79
2023-04-15T18:21:01.593Z,78.05
2023-04-15T18:23:29.523Z,77.90
2023-04-15T18:25:58.300Z,77.92
2023-04-15T18:28:26.257Z,77.93
2023-04-15T18:30:54.604Z,77.25
2023-04-15T18:33:23.946Z,77.29
2023-04-15T18:35:51.826Z,77.46
2023-04-15T18:38:19.736Z,77.43
2023-04-15T18:40:47.646Z,77.89
2023-04-15T18:43:15.621Z,77.33
2023-04-15T18:45:44.191Z,77.61
2023-04-15T18:48:12.517Z,77.69
2023-04-15T18:50:41.801Z,77.72
2023-04-15T18:53:09.741Z,77.58
2023-04-15T18:55:37.753Z,77.92
2023-04-15T18:58:06.477Z,77.44
2023-04-15T19:00:40.642Z,77.21
2023-04-15T19:03:09.282Z,76.91
2023-04-15T19:05:37.391Z,76.58
2023-04-15T19:08:07.523Z,76.26
2023-04-15T19:10:36.035Z,76.86
2023-04-15T19:13:04.500Z,76.65
2023-04-15T19:15:32.642Z,77.27
2023-04-15T19:18:00.568Z,76.99
2023-04-15T19:20:28.549Z,77.29
2023-04-15T19:22:56.767Z,77.44
2023-04-15T19:25:26.292Z,77.31
2023-04-15T19:27:54.291Z,77.38
2023-04-15T19:30:22.392Z,77.85
2023-04-15T19:32:50.499Z,76.75
2023-04-15T19:35:18.966Z,77.30
2023-04-15T19:37:48.562Z,77.37
2023-04-15T19:40:16.786Z,77.42
2023-04-15T19:42:46.072Z,77.95
2023-04-15T19:45:14.002Z,77.57
2023-04-15T19:47:42.053Z,78.33
2023-04-15T19:50:11.844Z,78.78
2023-04-15T19:52:39.835Z,78.63
2023-04-15T19:55:08.053Z,79.01
2023-04-15T19:57:35.940Z,78.06
2023-04-15T20:00:06.963Z,78.35
2023-04-15T20:02:35.523Z,78.18
2023-04-15T20:05:03.590Z,78.15
2023-04-15T20:07:31.468Z,77.10
2023-04-15T20:09:59.440Z,77.64
2023-04-15T20:12:50.673Z,77.27
2023-04-15T20:15:17.284Z,77.30
2023-04-15T20:17:45.167Z,77.34
2023-04-15T20:20:13.186Z,77.56
2023-04-15T20:22:41.451Z,77.56
2023-04-15T20:25:09.931Z,77.18
2023-04-15T20:27:37.884Z,77.23
2023-04-15T20:30:07.476Z,76.58
2023-04-15T20:32:36.771Z,77.02
2023-04-15T20:35:05.672Z,77.27
2023-04-15T20:37:34.237Z,77.83
2023-04-15T20:40:02.448Z,77.30
2023-04-15T20:42:34.220Z,77.06
2023-04-15T20:45:02.533Z,77.76
2023-04-15T20:47:30.861Z,77.41
2023-04-15T20:50:00.232Z,77.83
2023-04-15T20:52:28.136Z,78.12
2023-04-15T20:54:56.106Z,77.95
2023-04-15T20:57:24.593Z,77.88
2023-04-15T20:59:52.630Z,77.50
2023-04-15T21:02:20.593Z,78.09
2023-04-15T21:04:48.620Z,77.79
2023-04-15T21:07:17.983Z,77.69
2023-04-15T21:09:46.890Z,77.57
2023-04-15T21:12:14.756Z,77.53
2023-04-15T21:14:42.644Z,78.38
2023-04-15T21:17:11.468Z,78.75
2023-04-15T21:19:40.374Z,78.55
2023-04-15T21:22:08.208Z,78.93
2023-04-15T21:24:37.423Z,79.64
2023-04-15T21:27:05.902Z,79.46
2023-04-15T21:29:33.818Z,79.53
2023-04-15T21:32:01.715Z,79.90
2023-04-15T21:34:29.966Z,79.73
2023-04-15T21:36:57.825Z,79.88
2023-04-15T21:39:25.920Z,79.84
2023-04-15T21:41:55.190Z,79.41
2023-04-15T21:44:23.343Z,79.36
2023-04-15T21:46:51.362Z,79.11
2023-04-15T21:49:20.337Z,78.95
2023-04-15T21:51:48.600Z,78.89
2023-04-15T21:54:16.882Z,79.74
2023-04-15T21:56:44.755Z,79.79
2023-04-15T21:59:13.962Z,79.89
2023-04-15T22:01:41.996Z,79.86
2023-04-15T22:04:11.093Z,79.21
2023-04-15T22:06:39.292Z,79.05
2023-04-15T22:09:07.193Z,78.88
2023-04-15T22:11:36.485Z,78.64
2023-04-15T22:14:05.219Z,79.23
2023-04-15T22:16:34.558Z,78.82
2023-04-15T22:19:02.616Z,78.59
2023-04-15T22:21:30.553Z,78.96
2023-04-15T22:24:31.845Z,78.92
2023-04-15T22:26:46.282Z,78.66
2023-04-15T22:29:14.193Z,78.95
2023-04-15T22:31:43.457Z,78.38
2023-04-15T22:34:11.649Z,78.43
2023-04-15T22:36:39.532Z,78.33
2023-04-15T22:39:07.549Z,78.06
2023-04-15T22:41:35.660Z,77.94
2023-04-15T22:44:03.561Z,78.02
2023-04-15T22:46:31.985Z,77.50
2023-04-15T22:49:01.666Z,77.50
2023-04-15T22:51:29.699Z,77.74
2023-04-15T22:53:57.590Z,78.18
2023-04-15T22:56:26.169Z,78.01
2023-04-15T22:58:54.150Z,77.53
2023-04-15T23:01:22.140Z,77.57
2023-04-15T23:03:57.676Z,78.31
2023-04-15T23:06:34.115Z,77.81
2023-04-15T23:09:02.017Z,78.85
2023-04-15T23:11:30.132Z,78.66
2023-04-15T23:13:58.090Z,78.00
2023-04-15T23:16:26.081Z,77.73
2023-04-15T23:18:54.168Z,77.98
2023-04-15T23:21:23.668Z,78.03
2023-04-15T23:23:54.022Z,78.16
2023-04-15T23:26:21.846Z,78.61
2023-04-15T23:28:49.661Z,78.90
2023-04-15T23:31:17.579Z,78.78
2023-04-15T23:33:45.699Z,79.30
2023-04-15T23:36:13.536Z,79.29
2023-04-15T23:38:41.850Z,79.16
2023-04-15T23:41:12.087Z,79.18
2023-04-15T23:43:40.062Z,79.34
2023-04-15T23:46:08.318Z,79.20
2023-04-15T23:48:36.171Z,79.43
2023-04-15T23:51:04.280Z,79.42
2023-04-15T23:53:32.714Z,79.81
2023-04-15T23:56:01.169Z,79.88
2023-04-15T23:58:31.013Z,80.28
